createdAt,value
2019-05-30T00:01:30.375Z,10
2019-05-30T00:11:36.194Z,7
2019-05-30T00:21:43.883Z,7
2019-05-30T00:31:47.883Z,9
2019-05-30T00:41:53.338Z,11
2019-05-30T00:51:58.428Z,11
2019-05-30T01:02:04.906Z,12
2019-05-30T01:12:09.066Z,10
2019-05-30T01:22:14.318Z,10
2019-05-30T01:32:19.873Z,9
2019-05-30T01:42:23.211Z,9
2019-05-30T01:52:30.991Z,11
2019-05-30T02:02:37.934Z,14
2019-05-30T02:12:43.397Z,11
2019-05-30T02:22:49.202Z,14
2019-05-30T02:32:53.820Z,12
2019-05-30T02:43:01.187Z,11
2019-05-30T02:53:05.956Z,16
2019-05-30T03:03:14.189Z,13
2019-05-30T03:13:18.879Z,12
2019-05-30T03:23:25.322Z,11
2019-05-30T03:34:28.103Z,10
2019-05-30T03:44:23.103Z,9
2019-05-30T03:54:31.161Z,10
2019-05-30T04:04:39.306Z,12
2019-05-30T04:14:46.458Z,12
2019-05-30T04:24:52.578Z,19
2019-05-30T04:35:00.653Z,15
2019-05-30T04:45:02.744Z,10
2019-05-30T04:55:08.251Z,9
2019-05-30T05:05:18.825Z,10
2019-05-30T05:15:18.648Z,15
2019-05-30T05:25:24.815Z,11
2019-05-30T05:35:28.539Z,9
2019-05-30T05:45:32.597Z,7
2019-05-30T05:55:37.524Z,6
2019-05-30T06:05:52.823Z,10
2019-05-30T06:15:53.321Z,7
2019-05-30T06:26:08.293Z,7
2019-05-30T06:36:06.529Z,8
2019-05-30T06:46:11.667Z,8
2019-05-30T06:56:16.482Z,8
2019-05-30T07:06:27.294Z,6
2019-05-30T07:16:27.249Z,6
2019-05-30T07:26:34.084Z,8
2019-05-30T07:36:36.230Z,6
2019-05-30T07:46:45.312Z,6
2019-05-30T07:56:46.620Z,6
2019-05-30T08:06:51.955Z,8
2019-05-30T08:16:57.785Z,7
2019-05-30T08:27:06.782Z,5
2019-05-30T08:37:07.771Z,7
2019-05-30T08:47:15.589Z,6
2019-05-30T08:57:21.964Z,5
2019-05-30T09:07:27.385Z,5
2019-05-30T09:17:38.637Z,5
2019-05-30T09:27:37.720Z,6
2019-05-30T09:37:43.416Z,5
2019-05-30T09:47:47.105Z,5
2019-05-30T09:57:51.660Z,5
2019-05-30T10:07:56.611Z,6
2019-05-30T10:18:02.048Z,5
2019-05-30T10:28:07.489Z,5
2019-05-30T10:38:19.919Z,8
2019-05-30T10:48:24.370Z,7
2019-05-30T10:58:34.617Z,4
2019-05-30T11:08:49.053Z,7
2019-05-30T11:18:44.722Z,5
2019-05-30T11:28:48.523Z,7
2019-05-30T11:38:55.243Z,5
2019-05-30T11:49:01.781Z,5
2019-05-30T11:59:06.630Z,4
2019-05-30T12:09:14.584Z,7
2019-05-30T12:19:18.390Z,4
2019-05-30T12:29:24.809Z,5
2019-05-30T12:39:30.810Z,4
2019-05-30T12:49:37.137Z,5
2019-05-30T12:59:45.065Z,5
2019-05-30T13:09:53.479Z,7
2019-05-30T13:19:57.022Z,10
2019-05-30T13:30:04.165Z,20
2019-05-30T13:40:23.333Z,9
2019-05-30T13:50:17.736Z,17
2019-05-30T14:00:22.613Z,2
2019-05-30T14:10:30.587Z,5
2019-05-30T14:20:37.646Z,3
2019-05-30T14:30:41.749Z,5
2019-05-30T14:40:49.287Z,5
2019-05-30T14:50:54.415Z,9
2019-05-30T15:00:59.940Z,4
2019-05-30T15:11:05.406Z,4
2019-05-30T15:21:10.303Z,5
2019-05-30T15:31:14.981Z,5
2019-05-30T15:41:20.403Z,4
2019-05-30T15:51:25.587Z,4
2019-05-30T16:01:30.274Z,4
2019-05-30T16:11:34.312Z,3
2019-05-30T16:21:43.720Z,3
2019-05-30T16:31:46.343Z,3
2019-05-30T16:41:53.297Z,4
2019-05-30T16:51:59.169Z,3
2019-05-30T17:02:05.232Z,8
2019-05-30T17:12:10.523Z,5
2019-05-30T17:22:16.505Z,6
2019-05-30T17:32:21.723Z,3
2019-05-30T17:42:26.953Z,3
2019-05-30T17:52:36.629Z,6
2019-05-30T18:02:37.480Z,5
2019-05-30T18:12:43.632Z,3
2019-05-30T18:22:48.671Z,5
2019-05-30T18:32:54.967Z,6
2019-05-30T18:43:01.920Z,5
2019-05-30T18:53:08.441Z,3
2019-05-30T19:03:14.334Z,6
2019-05-30T19:13:18.802Z,6
2019-05-30T19:23:27.982Z,4
2019-05-30T19:33:30.939Z,4
2019-05-30T19:43:35.889Z,4
2019-05-30T19:53:40.673Z,3
2019-05-30T20:03:48.024Z,4
2019-05-30T20:13:52.626Z,4
2019-05-30T20:23:59.445Z,6
2019-05-30T20:34:02.409Z,5
2019-05-30T20:44:09.625Z,5
2019-05-30T20:54:18.276Z,8
2019-05-30T21:05:41.800Z,4
2019-05-30T21:15:45.744Z,4
2019-05-30T21:25:50.866Z,4
2019-05-30T21:35:57.403Z,5
2019-05-30T21:46:01.552Z,7
2019-05-30T21:56:04.694Z,5
2019-05-30T22:06:11.424Z,6
2019-05-30T22:16:16.246Z,5
2019-05-30T22:26:21.868Z,5
2019-05-30T22:36:30.180Z,4
2019-05-30T22:46:35.405Z,5
2019-05-30T22:56:40.969Z,5
2019-05-30T23:06:46.296Z,5
2019-05-30T23:16:52.218Z,5
2019-05-30T23:26:55.891Z,3
2019-05-30T23:37:01.920Z,6
2019-05-30T23:47:06.898Z,4
2019-05-30T23:57:13.280Z,7
